sensor_id;sensor_type;location;lat;lon;timestamp;temperature;humidity
70166;SHT30;57541;47.408;18.822;2023-07-20T00:00:03;21.20;91.67
70166;SHT30;57541;47.408;18.822;2023-07-20T00:00:35;21.15;91.74
70166;SHT30;57541;47.408;18.822;2023-07-20T00:01:07;21.17;91.50
70166;SHT30;57541;47.408;18.822;2023-07-20T00:01:39;21.17;91.60
70166;SHT30;57541;47.408;18.822;2023-07-20T00:02:16;21.15;91.79
70166;SHT30;57541;47.408;18.822;2023-07-20T00:02:51;21.17;91.73
70166;SHT30;57541;47.408;18.822;2023-07-20T00:03:23;21.10;91.42
70166;SHT30;57541;47.408;18.822;2023-07-20T00:03:57;21.10;91.40
70166;SHT30;57541;47.408;18.822;2023-07-20T00:04:28;21.14;91.52
70166;SHT30;57541;47.408;18.822;2023-07-20T00:05:00;21.06;91.64
70166;SHT30;57541;47.408;18.822;2023-07-20T00:05:32;21.04;92.08
70166;SHT30;57541;47.408;18.822;2023-07-20T00:06:04;20.97;92.07
70166;SHT30;57541;47.408;18.822;2023-07-20T00:06:36;21.01;92.29
70166;SHT30;57541;47.408;18.822;2023-07-20T00:07:12;21.06;92.17
70166;SHT30;57541;47.408;18.822;2023-07-20T00:07:43;21.07;92.17
70166;SHT30;57541;47.408;18.822;2023-07-20T00:08:16;21.04;92.15
70166;SHT30;57541;47.408;18.822;2023-07-20T00:08:48;21.00;92.09
70166;SHT30;57541;47.408;18.822;2023-07-20T00:09:20;21.04;91.99
70166;SHT30;57541;47.408;18.822;2023-07-20T00:09:52;21.03;92.03
70166;SHT30;57541;47.408;18.822;2023-07-20T00:10:24;21.00;92.22
70166;SHT30;57541;47.408;18.822;2023-07-20T00:10:56;21.01;92.13
70166;SHT30;57541;47.408;18.822;2023-07-20T00:11:28;21.03;92.06
70166;SHT30;57541;47.408;18.822;2023-07-20T00:12:00;20.97;92.52
70166;SHT30;57541;47.408;18.822;2023-07-20T00:12:32;20.99;92.23
70166;SHT30;57541;47.408;18.822;2023-07-20T00:13:03;20.94;92.18
70166;SHT30;57541;47.408;18.822;2023-07-20T00:13:35;20.93;92.30
70166;SHT30;57541;47.408;18.822;2023-07-20T00:14:07;20.87;92.52
70166;SHT30;57541;47.408;18.822;2023-07-20T00:14:39;20.91;92.30
70166;SHT30;57541;47.408;18.822;2023-07-20T00:15:10;20.83;92.42
70166;SHT30;57541;47.408;18.822;2023-07-20T00:15:42;20.81;92.51
70166;SHT30;57541;47.408;18.822;2023-07-20T00:16:14;20.83;92.42
70166;SHT30;57541;47.408;18.822;2023-07-20T00:16:46;20.76;92.55
70166;SHT30;57541;47.408;18.822;2023-07-20T00:17:20;20.75;92.46
70166;SHT30;57541;47.408;18.822;2023-07-20T00:17:52;20.73;92.52
70166;SHT30;57541;47.408;18.822;2023-07-20T00:18:24;20.77;92.58
70166;SHT30;57541;47.408;18.822;2023-07-20T00:18:56;20.77;92.64
70166;SHT30;57541;47.408;18.822;2023-07-20T00:19:28;20.80;92.52
70166;SHT30;57541;47.408;18.822;2023-07-20T00:19:59;20.76;92.80
70166;SHT30;57541;47.408;18.822;2023-07-20T00:20:31;20.59;93.36
70166;SHT30;57541;47.408;18.822;2023-07-20T00:21:03;20.59;93.30
70166;SHT30;57541;47.408;18.822;2023-07-20T00:21:35;20.63;93.00
70166;SHT30;57541;47.408;18.822;2023-07-20T00:22:08;20.59;93.16
70166;SHT30;57541;47.408;18.822;2023-07-20T00:22:40;20.52;93.22
70166;SHT30;57541;47.408;18.822;2023-07-20T00:23:13;20.51;93.28
70166;SHT30;57541;47.408;18.822;2023-07-20T00:23:44;20.49;93.36
70166;SHT30;57541;47.408;18.822;2023-07-20T00:24:16;20.55;93.22
70166;SHT30;57541;47.408;18.822;2023-07-20T00:24:48;20.53;93.17
70166;SHT30;57541;47.408;18.822;2023-07-20T00:25:21;20.52;93.29
70166;SHT30;57541;47.408;18.822;2023-07-20T00:25:53;20.49;93.37
70166;SHT30;57541;47.408;18.822;2023-07-20T00:26:25;20.51;93.52
70166;SHT30;57541;47.408;18.822;2023-07-20T00:26:57;20.55;93.33
70166;SHT30;57541;47.408;18.822;2023-07-20T00:27:29;20.57;93.31
70166;SHT30;57541;47.408;18.822;2023-07-20T00:28:01;20.48;93.35
70166;SHT30;57541;47.408;18.822;2023-07-20T00:28:33;20.52;93.52
70166;SHT30;57541;47.408;18.822;2023-07-20T00:29:04;20.52;93.46
70166;SHT30;57541;47.408;18.822;2023-07-20T00:29:37;20.51;93.38
70166;SHT30;57541;47.408;18.822;2023-07-20T00:30:10;20.57;93.41
70166;SHT30;57541;47.408;18.822;2023-07-20T00:30:43;20.59;93.16
70166;SHT30;57541;47.408;18.822;2023-07-20T00:31:15;20.60;93.06
70166;SHT30;57541;47.408;18.822;2023-07-20T00:31:47;20.57;93.13
70166;SHT30;57541;47.408;18.822;2023-07-20T00:32:21;20.46;93.58
70166;SHT30;57541;47.408;18.822;2023-07-20T00:32:53;20.51;93.66
70166;SHT30;57541;47.408;18.822;2023-07-20T00:33:25;20.56;93.39
70166;SHT30;57541;47.408;18.822;2023-07-20T00:33:56;20.49;93.49
70166;SHT30;57541;47.408;18.822;2023-07-20T00:34:28;20.51;93.40
70166;SHT30;57541;47.408;18.822;2023-07-20T00:35:00;20.48;93.67
70166;SHT30;57541;47.408;18.822;2023-07-20T00:35:32;20.45;93.82
70166;SHT30;57541;47.408;18.822;2023-07-20T00:36:04;20.48;93.66
70166;SHT30;57541;47.408;18.822;2023-07-20T00:36:36;20.49;93.61
70166;SHT30;57541;47.408;18.822;2023-07-20T00:37:08;20.45;93.77
70166;SHT30;57541;47.408;18.822;2023-07-20T00:37:39;20.46;93.74
70166;SHT30;57541;47.408;18.822;2023-07-20T00:38:11;20.43;93.88
70166;SHT30;57541;47.408;18.822;2023-07-20T00:38:43;20.49;93.78
70166;SHT30;57541;47.408;18.822;2023-07-20T00:39:15;20.43;93.83
70166;SHT30;57541;47.408;18.822;2023-07-20T00:39:46;20.43;93.97
70166;SHT30;57541;47.408;18.822;2023-07-20T00:40:18;20.45;93.97
70166;SHT30;57541;47.408;18.822;2023-07-20T00:40:53;20.43;93.84
70166;SHT30;57541;47.408;18.822;2023-07-20T00:41:28;20.42;93.99
70166;SHT30;57541;47.408;18.822;2023-07-20T00:42:01;20.45;93.83
70166;SHT30;57541;47.408;18.822;2023-07-20T00:42:34;20.41;93.85
70166;SHT30;57541;47.408;18.822;2023-07-20T00:43:06;20.42;94.00
70166;SHT30;57541;47.408;18.822;2023-07-20T00:43:38;20.45;93.93
70166;SHT30;57541;47.408;18.822;2023-07-20T00:44:10;20.45;93.99
70166;SHT30;57541;47.408;18.822;2023-07-20T00:44:42;20.46;93.85
70166;SHT30;57541;47.408;18.822;2023-07-20T00:45:13;20.45;93.84
70166;SHT30;57541;47.408;18.822;2023-07-20T00:45:45;20.45;93.87
70166;SHT30;57541;47.408;18.822;2023-07-20T00:46:17;20.45;93.86
70166;SHT30;57541;47.408;18.822;2023-07-20T00:46:49;20.43;94.13
70166;SHT30;57541;47.408;18.822;2023-07-20T00:47:21;20.39;94.11
70166;SHT30;57541;47.408;18.822;2023-07-20T00:47:53;20.43;94.24
70166;SHT30;57541;47.408;18.822;2023-07-20T00:48:25;20.42;94.21
70166;SHT30;57541;47.408;18.822;2023-07-20T00:48:57;20.41;94.38
70166;SHT30;57541;47.408;18.822;2023-07-20T00:49:29;20.38;94.51
70166;SHT30;57541;47.408;18.822;2023-07-20T00:50:02;20.36;94.71
70166;SHT30;57541;47.408;18.822;2023-07-20T00:50:34;20.39;94.56
70166;SHT30;57541;47.408;18.822;2023-07-20T00:51:06;20.42;94.63
70166;SHT30;57541;47.408;18.822;2023-07-20T00:51:38;20.39;94.84
70166;SHT30;57541;47.408;18.822;2023-07-20T00:52:13;20.41;94.81
70166;SHT30;57541;47.408;18.822;2023-07-20T00:52:48;20.42;94.94
70166;SHT30;57541;47.408;18.822;2023-07-20T00:53:20;20.45;95.04
70166;SHT30;57541;47.408;18.822;2023-07-20T00:53:53;20.38;95.27
70166;SHT30;57541;47.408;18.822;2023-07-20T00:54:25;20.36;95.33
70166;SHT30;57541;47.408;18.822;2023-07-20T00:54:57;20.39;95.22
70166;SHT30;57541;47.408;18.822;2023-07-20T00:55:30;20.43;95.19
70166;SHT30;57541;47.408;18.822;2023-07-20T00:56:02;20.48;95.00
70166;SHT30;57541;47.408;18.822;2023-07-20T00:56:35;20.45;95.01
70166;SHT30;57541;47.408;18.822;2023-07-20T00:57:09;20.49;94.91
70166;SHT30;57541;47.408;18.822;2023-07-20T00:57:41;20.53;94.75
70166;SHT30;57541;47.408;18.822;2023-07-20T00:58:13;20.55;94.60
70166;SHT30;57541;47.408;18.822;2023-07-20T00:58:45;20.57;94.70
70166;SHT30;57541;47.408;18.822;2023-07-20T00:59:17;20.62;94.62
70166;SHT30;57541;47.408;18.822;2023-07-20T00:59:49;20.63;94.53
70166;SHT30;57541;47.408;18.822;2023-07-20T01:00:22;20.66;94.54
70166;SHT30;57541;47.408;18.822;2023-07-20T01:00:53;20.68;94.65
70166;SHT30;57541;47.408;18.822;2023-07-20T01:01:25;20.70;94.50
70166;SHT30;57541;47.408;18.822;2023-07-20T01:01:57;20.75;94.38
70166;SHT30;57541;47.408;18.822;2023-07-20T01:02:29;20.75;94.28
70166;SHT30;57541;47.408;18.822;2023-07-20T01:03:01;20.79;94.20
70166;SHT30;57541;47.408;18.822;2023-07-20T01:03:33;20.80;94.27
70166;SHT30;57541;47.408;18.822;2023-07-20T01:04:05;20.79;94.19
70166;SHT30;57541;47.408;18.822;2023-07-20T01:04:37;20.80;94.11
70166;SHT30;57541;47.408;18.822;2023-07-20T01:05:09;20.80;94.05
70166;SHT30;57541;47.408;18.822;2023-07-20T01:06:54;20.84;93.97
70166;SHT30;57541;47.408;18.822;2023-07-20T01:07:34;20.90;94.18
70166;SHT30;57541;47.408;18.822;2023-07-20T01:08:21;20.94;93.89
70166;SHT30;57541;47.408;18.822;2023-07-20T01:10:18;20.91;94.10
70166;SHT30;57541;47.408;18.822;2023-07-20T01:10:55;20.96;93.87
70166;SHT30;57541;47.408;18.822;2023-07-20T01:12:54;20.93;94.01
70166;SHT30;57541;47.408;18.822;2023-07-20T01:13:27;20.96;93.99
70166;SHT30;57541;47.408;18.822;2023-07-20T01:13:59;20.94;94.04
70166;SHT30;57541;47.408;18.822;2023-07-20T01:14:31;20.93;94.19
70166;SHT30;57541;47.408;18.822;2023-07-20T01:15:04;20.91;94.24
70166;SHT30;57541;47.408;18.822;2023-07-20T01:15:41;20.94;94.11
70166;SHT30;57541;47.408;18.822;2023-07-20T01:16:12;20.91;94.05
70166;SHT30;57541;47.408;18.822;2023-07-20T01:16:44;20.93;93.94
70166;SHT30;57541;47.408;18.822;2023-07-20T01:17:16;20.94;94.10
70166;SHT30;57541;47.408;18.822;2023-07-20T01:17:48;20.84;94.48
70166;SHT30;57541;47.408;18.822;2023-07-20T01:18:20;20.79;94.49
70166;SHT30;57541;47.408;18.822;2023-07-20T01:18:51;20.79;94.63
70166;SHT30;57541;47.408;18.822;2023-07-20T01:19:23;20.81;94.44
70166;SHT30;57541;47.408;18.822;2023-07-20T01:19:55;20.80;94.53
70166;SHT30;57541;47.408;18.822;2023-07-20T01:20:28;20.86;94.37
70166;SHT30;57541;47.408;18.822;2023-07-20T01:21:08;20.90;94.15
70166;SHT30;57541;47.408;18.822;2023-07-20T01:23:32;20.91;94.02
70166;SHT30;57541;47.408;18.822;2023-07-20T01:26:06;20.79;94.36
70166;SHT30;57541;47.408;18.822;2023-07-20T01:30:03;20.89;94.13
70166;SHT30;57541;47.408;18.822;2023-07-20T01:31:25;20.79;94.33
70166;SHT30;57541;47.408;18.822;2023-07-20T01:32:01;20.81;94.43
70166;SHT30;57541;47.408;18.822;2023-07-20T01:32:36;20.81;94.34
70166;SHT30;57541;47.408;18.822;2023-07-20T01:33:11;20.81;94.45
70166;SHT30;57541;47.408;18.822;2023-07-20T01:33:46;20.77;94.45
70166;SHT30;57541;47.408;18.822;2023-07-20T01:34:19;20.80;94.32
70166;SHT30;57541;47.408;18.822;2023-07-20T01:34:52;20.72;94.81
70166;SHT30;57541;47.408;18.822;2023-07-20T01:35:30;20.80;94.50
70166;SHT30;57541;47.408;18.822;2023-07-20T01:36:02;20.79;94.35
70166;SHT30;57541;47.408;18.822;2023-07-20T01:36:36;20.75;94.73
70166;SHT30;57541;47.408;18.822;2023-07-20T01:37:10;20.81;94.42
70166;SHT30;57541;47.408;18.822;2023-07-20T01:37:43;20.84;94.34
70166;SHT30;57541;47.408;18.822;2023-07-20T01:38:19;20.84;94.21
70166;SHT30;57541;47.408;18.822;2023-07-20T01:38:52;20.89;94.07
70166;SHT30;57541;47.408;18.822;2023-07-20T01:39:24;20.89;94.07
70166;SHT30;57541;47.408;18.822;2023-07-20T01:39:57;20.97;93.90
70166;SHT30;57541;47.408;18.822;2023-07-20T01:40:29;20.97;93.70
70166;SHT30;57541;47.408;18.822;2023-07-20T01:41:01;21.00;93.73
70166;SHT30;57541;47.408;18.822;2023-07-20T01:41:34;21.01;93.70
70166;SHT30;57541;47.408;18.822;2023-07-20T01:42:06;21.04;93.54
70166;SHT30;57541;47.408;18.822;2023-07-20T01:42:38;21.00;93.59
70166;SHT30;57541;47.408;18.822;2023-07-20T01:43:10;20.97;93.67
70166;SHT30;57541;47.408;18.822;2023-07-20T01:43:43;20.94;93.71
70166;SHT30;57541;47.408;18.822;2023-07-20T01:44:14;20.91;93.97
70166;SHT30;57541;47.408;18.822;2023-07-20T01:44:46;20.91;93.79
70166;SHT30;57541;47.408;18.822;2023-07-20T01:45:18;20.97;93.64
70166;SHT30;57541;47.408;18.822;2023-07-20T01:45:49;20.99;93.57
70166;SHT30;57541;47.408;18.822;2023-07-20T01:46:21;21.00;93.47
70166;SHT30;57541;47.408;18.822;2023-07-20T01:46:54;21.03;93.39
70166;SHT30;57541;47.408;18.822;2023-07-20T01:47:25;20.99;93.55
70166;SHT30;57541;47.408;18.822;2023-07-20T01:47:57;21.01;93.58
70166;SHT30;57541;47.408;18.822;2023-07-20T01:48:31;20.96;93.73
70166;SHT30;57541;47.408;18.822;2023-07-20T01:49:04;20.96;93.73
70166;SHT30;57541;47.408;18.822;2023-07-20T01:49:38;20.94;94.17
70166;SHT30;57541;47.408;18.822;2023-07-20T01:50:10;20.93;94.14
70166;SHT30;57541;47.408;18.822;2023-07-20T01:50:41;20.94;93.98
70166;SHT30;57541;47.408;18.822;2023-07-20T01:51:13;20.94;93.93
70166;SHT30;57541;47.408;18.822;2023-07-20T01:51:45;20.97;93.80
70166;SHT30;57541;47.408;18.822;2023-07-20T01:52:17;21.00;93.68
70166;SHT30;57541;47.408;18.822;2023-07-20T01:52:49;21.01;93.92
70166;SHT30;57541;47.408;18.822;2023-07-20T01:53:21;21.01;93.77
70166;SHT30;57541;47.408;18.822;2023-07-20T01:53:52;21.06;93.57
70166;SHT30;57541;47.408;18.822;2023-07-20T01:54:25;21.04;93.54
70166;SHT30;57541;47.408;18.822;2023-07-20T01:54:56;21.01;93.48
70166;SHT30;57541;47.408;18.822;2023-07-20T01:55:28;21.03;93.56
70166;SHT30;57541;47.408;18.822;2023-07-20T01:56:00;21.07;93.33
70166;SHT30;57541;47.408;18.822;2023-07-20T01:56:31;21.07;93.27
70166;SHT30;57541;47.408;18.822;2023-07-20T01:57:04;21.08;93.27
70166;SHT30;57541;47.408;18.822;2023-07-20T01:57:36;21.08;93.28
70166;SHT30;57541;47.408;18.822;2023-07-20T01:58:08;21.11;93.23
70166;SHT30;57541;47.408;18.822;2023-07-20T01:58:40;21.07;93.29
70166;SHT30;57541;47.408;18.822;2023-07-20T01:59:12;21.10;93.24
70166;SHT30;57541;47.408;18.822;2023-07-20T01:59:43;21.10;93.22
70166;SHT30;57541;47.408;18.822;2023-07-20T02:00:15;21.10;93.22
70166;SHT30;57541;47.408;18.822;2023-07-20T02:00:47;21.11;93.17
70166;SHT30;57541;47.408;18.822;2023-07-20T02:01:19;21.12;93.33
70166;SHT30;57541;47.408;18.822;2023-07-20T02:01:51;21.15;93.06
70166;SHT30;57541;47.408;18.822;2023-07-20T02:02:26;21.17;92.98
70166;SHT30;57541;47.408;18.822;2023-07-20T02:02:58;21.12;93.13
70166;SHT30;57541;47.408;18.822;2023-07-20T02:03:30;21.10;93.08
70166;SHT30;57541;47.408;18.822;2023-07-20T02:04:02;21.12;93.11
70166;SHT30;57541;47.408;18.822;2023-07-20T02:04:33;21.12;93.11
70166;SHT30;57541;47.408;18.822;2023-07-20T02:05:05;21.07;93.08
70166;SHT30;57541;47.408;18.822;2023-07-20T02:05:37;21.12;93.03
70166;SHT30;57541;47.408;18.822;2023-07-20T02:06:09;21.10;93.05
70166;SHT30;57541;47.408;18.822;2023-07-20T02:06:41;21.10;92.97
70166;SHT30;57541;47.408;18.822;2023-07-20T02:07:14;21.06;93.39
70166;SHT30;57541;47.408;18.822;2023-07-20T02:07:45;21.11;93.28
70166;SHT30;57541;47.408;18.822;2023-07-20T02:08:17;21.08;93.12
70166;SHT30;57541;47.408;18.822;2023-07-20T02:08:49;21.06;93.03
70166;SHT30;57541;47.408;18.822;2023-07-20T02:09:24;21.10;93.09
70166;SHT30;57541;47.408;18.822;2023-07-20T02:09:56;21.11;93.04
70166;SHT30;57541;47.408;18.822;2023-07-20T02:10:27;21.12;93.21
70166;SHT30;57541;47.408;18.822;2023-07-20T02:10:59;21.11;93.33
70166;SHT30;57541;47.408;18.822;2023-07-20T02:11:32;21.14;93.35
70166;SHT30;57541;47.408;18.822;2023-07-20T02:12:04;21.12;93.16
70166;SHT30;57541;47.408;18.822;2023-07-20T02:12:37;21.12;93.05
70166;SHT30;57541;47.408;18.822;2023-07-20T02:13:09;21.18;93.02
70166;SHT30;57541;47.408;18.822;2023-07-20T02:13:40;21.11;93.39
70166;SHT30;57541;47.408;18.822;2023-07-20T02:14:12;21.06;93.61
70166;SHT30;57541;47.408;18.822;2023-07-20T02:14:44;21.07;93.46
70166;SHT30;57541;47.408;18.822;2023-07-20T02:15:15;21.11;93.66
70166;SHT30;57541;47.408;18.822;2023-07-20T02:15:48;21.10;93.45
70166;SHT30;57541;47.408;18.822;2023-07-20T02:16:20;21.10;93.46
70166;SHT30;57541;47.408;18.822;2023-07-20T02:16:53;21.08;93.52
70166;SHT30;57541;47.408;18.822;2023-07-20T02:17:29;21.08;93.65
70166;SHT30;57541;47.408;18.822;2023-07-20T02:18:01;21.08;93.63
70166;SHT30;57541;47.408;18.822;2023-07-20T02:18:34;21.08;93.46
70166;SHT30;57541;47.408;18.822;2023-07-20T02:19:08;21.06;93.55
70166;SHT30;57541;47.408;18.822;2023-07-20T02:19:40;21.07;93.74
70166;SHT30;57541;47.408;18.822;2023-07-20T02:20:15;21.07;93.71
70166;SHT30;57541;47.408;18.822;2023-07-20T02:20:48;21.06;93.89
70166;SHT30;57541;47.408;18.822;2023-07-20T02:21:20;21.04;93.80
70166;SHT30;57541;47.408;18.822;2023-07-20T02:21:52;21.04;93.73
70166;SHT30;57541;47.408;18.822;2023-07-20T02:22:24;21.06;93.82
70166;SHT30;57541;47.408;18.822;2023-07-20T02:22:56;21.06;93.85
70166;SHT30;57541;47.408;18.822;2023-07-20T02:23:28;21.01;94.07
70166;SHT30;57541;47.408;18.822;2023-07-20T02:24:00;21.06;93.73
70166;SHT30;57541;47.408;18.822;2023-07-20T02:24:33;21.06;93.53
70166;SHT30;57541;47.408;18.822;2023-07-20T02:25:06;21.04;93.69
70166;SHT30;57541;47.408;18.822;2023-07-20T02:25:40;21.04;93.74
70166;SHT30;57541;47.408;18.822;2023-07-20T02:26:12;21.03;93.67
70166;SHT30;57541;47.408;18.822;2023-07-20T02:26:44;21.08;93.48
70166;SHT30;57541;47.408;18.822;2023-07-20T02:27:16;21.11;93.46
70166;SHT30;57541;47.408;18.822;2023-07-20T02:27:48;21.12;93.33
70166;SHT30;57541;47.408;18.822;2023-07-20T02:28:19;21.17;93.16
70166;SHT30;57541;47.408;18.822;2023-07-20T02:28:51;21.15;93.15
70166;SHT30;57541;47.408;18.822;2023-07-20T02:29:23;21.20;93.00
70166;SHT30;57541;47.408;18.822;2023-07-20T02:29:54;21.18;93.02
70166;SHT30;57541;47.408;18.822;2023-07-20T02:30:26;21.20;93.01
70166;SHT30;57541;47.408;18.822;2023-07-20T02:30:58;21.20;92.90
70166;SHT30;57541;47.408;18.822;2023-07-20T02:31:32;21.15;92.94
70166;SHT30;57541;47.408;18.822;2023-07-20T02:32:05;21.17;93.14
70166;SHT30;57541;47.408;18.822;2023-07-20T02:32:38;21.18;93.03
70166;SHT30;57541;47.408;18.822;2023-07-20T02:33:10;21.17;93.07
70166;SHT30;57541;47.408;18.822;2023-07-20T02:33:42;21.14;93.19
70166;SHT30;57541;47.408;18.822;2023-07-20T02:34:13;21.14;93.20
70166;SHT30;57541;47.408;18.822;2023-07-20T02:34:45;21.08;93.23
70166;SHT30;57541;47.408;18.822;2023-07-20T02:35:17;21.08;93.29
70166;SHT30;57541;47.408;18.822;2023-07-20T02:35:49;21.07;93.34
70166;SHT30;57541;47.408;18.822;2023-07-20T02:36:21;21.04;93.45
70166;SHT30;57541;47.408;18.822;2023-07-20T02:36:54;21.03;93.57
70166;SHT30;57541;47.408;18.822;2023-07-20T02:37:28;21.06;93.69
70166;SHT30;57541;47.408;18.822;2023-07-20T02:37:59;21.06;93.60
70166;SHT30;57541;47.408;18.822;2023-07-20T02:38:31;21.03;93.83
70166;SHT30;57541;47.408;18.822;2023-07-20T02:39:04;21.06;93.61
70166;SHT30;57541;47.408;18.822;2023-07-20T02:39:36;21.07;93.49
70166;SHT30;57541;47.408;18.822;2023-07-20T02:40:08;21.10;93.39
70166;SHT30;57541;47.408;18.822;2023-07-20T02:40:40;21.11;93.27
70166;SHT30;57541;47.408;18.822;2023-07-20T02:41:17;21.12;93.25
70166;SHT30;57541;47.408;18.822;2023-07-20T02:41:49;21.14;93.16
70166;SHT30;57541;47.408;18.822;2023-07-20T02:42:20;21.14;93.14
70166;SHT30;57541;47.408;18.822;2023-07-20T02:42:54;21.12;93.46
70166;SHT30;57541;47.408;18.822;2023-07-20T02:43:26;21.15;93.19
70166;SHT30;57541;47.408;18.822;2023-07-20T02:43:57;21.14;93.33
70166;SHT30;57541;47.408;18.822;2023-07-20T02:44:29;21.17;93.23
70166;SHT30;57541;47.408;18.822;2023-07-20T02:45:02;21.17;93.15
70166;SHT30;57541;47.408;18.822;2023-07-20T02:45:35;21.18;93.12
70166;SHT30;57541;47.408;18.822;2023-07-20T02:46:11;21.15;93.17
70166;SHT30;57541;47.408;18.822;2023-07-20T02:46:43;21.15;93.18
70166;SHT30;57541;47.408;18.822;2023-07-20T02:47:14;21.17;93.19
70166;SHT30;57541;47.408;18.822;2023-07-20T02:47:46;21.12;93.28
70166;SHT30;57541;47.408;18.822;2023-07-20T02:48:18;21.10;93.49
70166;SHT30;57541;47.408;18.822;2023-07-20T02:48:50;21.10;93.63
70166;SHT30;57541;47.408;18.822;2023-07-20T02:49:22;21.08;93.51
70166;SHT30;57541;47.408;18.822;2023-07-20T02:49:53;21.12;93.43
70166;SHT30;57541;47.408;18.822;2023-07-20T02:50:25;21.08;93.52
70166;SHT30;57541;47.408;18.822;2023-07-20T02:50:57;21.04;93.65
70166;SHT30;57541;47.408;18.822;2023-07-20T02:51:29;21.03;93.71
70166;SHT30;57541;47.408;18.822;2023-07-20T02:52:01;21.04;93.78
70166;SHT30;57541;47.408;18.822;2023-07-20T02:52:32;21.06;93.85
70166;SHT30;57541;47.408;18.822;2023-07-20T02:53:04;21.01;93.94
70166;SHT30;57541;47.408;18.822;2023-07-20T02:53:36;21.00;93.91
70166;SHT30;57541;47.408;18.822;2023-07-20T02:54:08;21.01;93.89
70166;SHT30;57541;47.408;18.822;2023-07-20T02:54:40;21.00;93.90
70166;SHT30;57541;47.408;18.822;2023-07-20T02:55:11;21.00;93.93
70166;SHT30;57541;47.408;18.822;2023-07-20T02:55:44;21.03;93.80
70166;SHT30;57541;47.408;18.822;2023-07-20T02:56:15;21.06;93.86
70166;SHT30;57541;47.408;18.822;2023-07-20T02:56:47;21.00;94.00
70166;SHT30;57541;47.408;18.822;2023-07-20T02:57:19;20.99;93.96
70166;SHT30;57541;47.408;18.822;2023-07-20T02:57:50;20.99;94.06
70166;SHT30;57541;47.408;18.822;2023-07-20T02:58:22;21.03;93.96
70166;SHT30;57541;47.408;18.822;2023-07-20T02:58:54;21.00;93.92
70166;SHT30;57541;47.408;18.822;2023-07-20T02:59:26;21.01;94.02
70166;SHT30;57541;47.408;18.822;2023-07-20T02:59:57;21.01;93.99
70166;SHT30;57541;47.408;18.822;2023-07-20T03:00:29;21.00;93.96
70166;SHT30;57541;47.408;18.822;2023-07-20T03:01:01;20.94;94.31
70166;SHT30;57541;47.408;18.822;2023-07-20T03:01:33;20.93;94.19
70166;SHT30;57541;47.408;18.822;2023-07-20T03:02:07;20.94;94.27
70166;SHT30;57541;47.408;18.822;2023-07-20T03:02:41;20.89;94.31
70166;SHT30;57541;47.408;18.822;2023-07-20T03:03:13;20.91;94.43
70166;SHT30;57541;47.408;18.822;2023-07-20T03:03:45;20.89;94.40
70166;SHT30;57541;47.408;18.822;2023-07-20T03:04:19;20.90;94.38
70166;SHT30;57541;47.408;18.822;2023-07-20T03:04:51;20.91;94.30
70166;SHT30;57541;47.408;18.822;2023-07-20T03:05:23;20.91;94.30
70166;SHT30;57541;47.408;18.822;2023-07-20T03:05:59;20.91;94.21
70166;SHT30;57541;47.408;18.822;2023-07-20T03:06:32;20.91;94.27
70166;SHT30;57541;47.408;18.822;2023-07-20T03:07:07;20.81;94.47
70166;SHT30;57541;47.408;18.822;2023-07-20T03:07:39;20.80;94.56
70166;SHT30;57541;47.408;18.822;2023-07-20T03:08:11;20.83;94.71
70166;SHT30;57541;47.408;18.822;2023-07-20T03:08:43;20.81;94.72
70166;SHT30;57541;47.408;18.822;2023-07-20T03:09:16;20.77;94.87
70166;SHT30;57541;47.408;18.822;2023-07-20T03:09:48;20.76;95.17
70166;SHT30;57541;47.408;18.822;2023-07-20T03:10:20;20.80;94.94
70166;SHT30;57541;47.408;18.822;2023-07-20T03:10:52;20.86;94.64
70166;SHT30;57541;47.408;18.822;2023-07-20T03:11:23;20.90;94.39
70166;SHT30;57541;47.408;18.822;2023-07-20T03:11:55;20.89;94.32
70166;SHT30;57541;47.408;18.822;2023-07-20T03:12:27;20.91;94.23
70166;SHT30;57541;47.408;18.822;2023-07-20T03:13:04;20.94;94.14
70166;SHT30;57541;47.408;18.822;2023-07-20T03:13:35;20.90;94.28
70166;SHT30;57541;47.408;18.822;2023-07-20T03:14:07;20.89;94.30
70166;SHT30;57541;47.408;18.822;2023-07-20T03:14:39;20.89;94.29
70166;SHT30;57541;47.408;18.822;2023-07-20T03:15:10;20.76;94.49
70166;SHT30;57541;47.408;18.822;2023-07-20T03:15:42;20.76;94.76
70166;SHT30;57541;47.408;18.822;2023-07-20T03:16:18;20.75;94.74
70166;SHT30;57541;47.408;18.822;2023-07-20T03:16:50;20.72;94.78
70166;SHT30;57541;47.408;18.822;2023-07-20T03:17:21;20.68;94.84
70166;SHT30;57541;47.408;18.822;2023-07-20T03:17:53;20.66;94.93
70166;SHT30;57541;47.408;18.822;2023-07-20T03:18:27;20.65;95.24
70166;SHT30;57541;47.408;18.822;2023-07-20T03:19:01;20.63;95.18
70166;SHT30;57541;47.408;18.822;2023-07-20T03:19:33;20.65;95.04
70166;SHT30;57541;47.408;18.822;2023-07-20T03:20:05;20.60;95.19
70166;SHT30;57541;47.408;18.822;2023-07-20T03:20:40;20.59;94.96
70166;SHT30;57541;47.408;18.822;2023-07-20T03:21:12;20.60;94.27
70166;SHT30;57541;47.408;18.822;2023-07-20T03:21:44;20.55;94.45
70166;SHT30;57541;47.408;18.822;2023-07-20T03:22:16;20.59;94.59
70166;SHT30;57541;47.408;18.822;2023-07-20T03:22:47;20.60;94.48
70166;SHT30;57541;47.408;18.822;2023-07-20T03:23:19;20.63;94.13
70166;SHT30;57541;47.408;18.822;2023-07-20T03:23:51;20.62;93.85
70166;SHT30;57541;47.408;18.822;2023-07-20T03:24:23;20.63;93.47
70166;SHT30;57541;47.408;18.822;2023-07-20T03:24:55;20.66;93.35
70166;SHT30;57541;47.408;18.822;2023-07-20T03:25:27;20.68;93.22
70166;SHT30;57541;47.408;18.822;2023-07-20T03:26:00;20.68;93.18
70166;SHT30;57541;47.408;18.822;2023-07-20T03:26:31;20.68;92.93
70166;SHT30;57541;47.408;18.822;2023-07-20T03:27:03;20.66;92.90
70166;SHT30;57541;47.408;18.822;2023-07-20T03:27:35;20.69;92.70
70166;SHT30;57541;47.408;18.822;2023-07-20T03:28:07;20.70;92.65
70166;SHT30;57541;47.408;18.822;2023-07-20T03:28:39;20.73;92.74
70166;SHT30;57541;47.408;18.822;2023-07-20T03:29:11;20.75;92.57
70166;SHT30;57541;47.408;18.822;2023-07-20T03:29:44;20.73;92.71
70166;SHT30;57541;47.408;18.822;2023-07-20T03:30:15;20.79;92.43
70166;SHT30;57541;47.408;18.822;2023-07-20T03:30:53;20.80;92.05
70166;SHT30;57541;47.408;18.822;2023-07-20T03:31:26;20.80;91.90
70166;SHT30;57541;47.408;18.822;2023-07-20T03:31:57;20.84;91.96
70166;SHT30;57541;47.408;18.822;2023-07-20T03:32:30;20.86;91.64
70166;SHT30;57541;47.408;18.822;2023-07-20T03:33:02;20.91;91.56
70166;SHT30;57541;47.408;18.822;2023-07-20T03:33:35;20.90;91.68